OIBA  Abumusa Island  Airport

Iran

Add Bookmark
ICAO OIBA
IATA AEU
Type Airport
Status Operational
Latitude
25° 52' 32" N
25.875700
Longitude
55° 1' 58" E
55.033001
Local (DST + 5) UTC (GMT + 4)
May 7, 2015 01:07 May 7, 2015 08:37
Sunrise-Sunset Local UTC
Begin Civil Twilight 05:42 01:12
Sunrise 06:07 01:37
Sunset 07:25 14:55
End Civil Twilight 07:49 15:19
VFR
VFR
MVFR
MVFR
IFR
VFR
LIFR
VFR
Unknown
Unavailable

Current Weather

METAR Observed MVFR
OIBA 070800Z 15004KT 5000 NSC 32/21 Q1006 Thu, May 7, 2015 @ 08:00 UTC
(37 Minutes ago)
Marginal Visual Flight Rules
Wind Visibility Conditions
150° at 4 knots (7 kph) 5,005 m
  • No significant weather
Temperatures Readings Precipitation
Current Temp
32°C
90°F
Dewpoint
21°C
70°F
Heat Index
36°C
96°
Humidity 52%
Altimeter 29.7" Hg
Sea Level Pressure 1,006 mb
Field Elevation
7 m
23 ft
None Recorded

Additional weather within a 92.6km radius of OIBA

Map ICAO Location
OIBS 49.4km W (274°)
OIBL 75.9km N/NW (344°)
OMDB 76.9km S/SE (154°)
OMSJ 77.8km SE (141°)
VFR
VFR
MVFR
MVFR
IFR
VFR
LIFR
VFR
Unknown
Unavailable
-
-

CheckWX.com is intended as a tool to help pilots better visualize weather data. It is not intended as a substitute for an official weather briefing obtained from a Flight Service Station. CheckWX.com does not meet the FAA requirements for an official pre-flight weather briefing. Therefore, it's important that pilots still call and obtain an official FSS pre-flight weather briefing.

© 2007-2015 CheckWX.com
08:37:37 UTC